Time;durP1;ratioP1;P1;durP2;ratioP2;P2;SDS_P1;SDS_P2;PMS_P1;PMS_P2;Temp;Humidity;BMP_temperature;BMP_pressure;BME280_temperature;BME280_humidity;BME280_pressure;Samples;Min_cycle;Max_cycle;Signal;HPM_P1;HPM_P2
2021/12/30 00:02:12;;;;;;;1.60;0.70;;;12.30;99.90;;;;;;5031204;28;20449;-73
2021/12/30 00:04:39;;;;;;;2.17;0.80;;;12.30;99.90;;;;;;5029989;28;20521;-73
2021/12/30 00:07:08;;;;;;;1.73;0.50;;;12.40;99.90;;;;;;5030062;28;20449;-72
2021/12/30 00:09:36;;;;;;;1.50;0.50;;;12.40;99.90;;;;;;5030500;28;20442;-74
2021/12/30 00:12:06;;;;;;;3.60;0.60;;;12.40;99.90;;;;;;5019807;28;20977;-73
2021/12/30 00:14:33;;;;;;;1.47;0.50;;;12.40;99.90;;;;;;5026749;28;20445;-73
2021/12/30 00:17:00;;;;;;;1.60;0.60;;;12.40;99.90;;;;;;5030616;28;20478;-73
2021/12/30 00:19:28;;;;;;;1.43;0.60;;;12.40;99.90;;;;;;5029993;28;20543;-72
2021/12/30 00:21:55;;;;;;;1.40;0.60;;;12.40;99.90;;;;;;5016365;28;20443;-72
2021/12/30 00:24:22;;;;;;;1.40;0.60;;;12.40;99.90;;;;;;5018883;28;20465;-73
2021/12/30 00:26:49;;;;;;;1.40;0.70;;;12.30;99.90;;;;;;5012329;28;20495;-73
2021/12/30 00:29:18;;;;;;;1.77;0.80;;;12.40;99.90;;;;;;5019016;28;20875;-73
2021/12/30 00:31:45;;;;;;;1.50;0.70;;;12.40;99.90;;;;;;5029149;28;20450;-73
2021/12/30 00:34:12;;;;;;;1.60;0.70;;;12.40;99.90;;;;;;5012985;28;20438;-72
2021/12/30 00:36:41;;;;;;;1.50;0.70;;;12.40;99.90;;;;;;5012090;28;20444;-72
2021/12/30 00:39:08;;;;;;;1.30;0.50;;;12.40;99.90;;;;;;5014523;28;20236;-73
2021/12/30 00:41:36;;;;;;;1.40;0.60;;;12.40;99.90;;;;;;5025913;28;20449;-73
2021/12/30 00:44:03;;;;;;;1.40;0.60;;;12.40;99.90;;;;;;5019598;28;20976;-73
2021/12/30 00:46:32;;;;;;;1.73;0.53;;;12.40;99.90;;;;;;5012220;28;20443;-72
2021/12/30 00:48:59;;;;;;;1.30;0.50;;;12.40;99.90;;;;;;5016018;28;20447;-73
2021/12/30 00:51:27;;;;;;;1.60;0.70;;;12.40;99.90;;;;;;5011695;28;20490;-73
2021/12/30 00:53:54;;;;;;;1.60;0.80;;;12.40;99.90;;;;;;5017445;28;20196;-73
2021/12/30 00:56:21;;;;;;;1.50;0.60;;;12.50;99.90;;;;;;5011677;28;20447;-73
2021/12/30 00:58:52;;;;;;;1.60;0.60;;;12.50;99.90;;;;;;5027394;28;20483;-73
2021/12/30 01:01:19;;;;;;;1.30;0.50;;;12.40;99.90;;;;;;5026520;28;20442;-73
2021/12/30 01:03:48;;;;;;;1.30;0.50;;;12.40;99.90;;;;;;5021890;28;20800;-73
2021/12/30 01:06:15;;;;;;;1.37;0.50;;;12.40;99.90;;;;;;5015497;28;20442;-72
2021/12/30 01:08:47;;;;;;;1.50;0.50;;;12.40;99.90;;;;;;5011641;28;20505;-73
2021/12/30 01:11:14;;;;;;;1.40;0.60;;;12.50;99.90;;;;;;5015601;28;20447;-72
2021/12/30 01:13:44;;;;;;;1.50;0.60;;;12.50;99.90;;;;;;5051203;28;20494;-73
2021/12/30 01:16:19;;;;;;;1.40;0.60;;;12.50;99.90;;;;;;5045372;28;20527;-72
2021/12/30 01:19:00;;;;;;;1.50;0.60;;;12.50;99.90;;;;;;5031071;28;20484;-73
2021/12/30 01:21:31;;;;;;;1.50;0.50;;;12.50;99.90;;;;;;5031731;28;20446;-73
2021/12/30 01:23:58;;;;;;;1.37;0.50;;;12.50;99.90;;;;;;5031942;28;20451;-73
2021/12/30 01:26:26;;;;;;;1.40;0.50;;;12.50;99.90;;;;;;5031602;28;20454;-73
2021/12/30 01:28:54;;;;;;;1.40;0.50;;;12.60;99.90;;;;;;5040426;28;20457;-73
2021/12/30 01:31:22;;;;;;;1.50;0.60;;;12.60;99.90;;;;;;5050913;28;20865;-73
2021/12/30 01:33:50;;;;;;;1.40;0.60;;;12.60;99.90;;;;;;5042841;28;20489;-73
2021/12/30 01:36:21;;;;;;;1.50;0.60;;;12.60;99.90;;;;;;5031120;28;20434;-73
2021/12/30 01:38:49;;;;;;;2.43;0.70;;;12.60;99.90;;;;;;5038479;28;20484;-73
2021/12/30 01:41:16;;;;;;;1.30;0.47;;;12.60;99.90;;;;;;5050894;28;20449;-73
2021/12/30 01:43:43;;;;;;;1.60;0.60;;;12.70;99.90;;;;;;5044458;28;20999;-73
2021/12/30 01:46:11;;;;;;;1.40;0.60;;;12.70;99.90;;;;;;5031257;28;20446;-72
2021/12/30 01:48:41;;;;;;;1.30;0.50;;;12.70;99.90;;;;;;5039468;28;20861;-73
2021/12/30 01:51:10;;;;;;;1.40;0.60;;;12.70;99.90;;;;;;5050763;28;20481;-73
2021/12/30 01:53:38;;;;;;;1.47;0.60;;;12.70;99.90;;;;;;5042602;28;20501;-74
2021/12/30 01:56:06;;;;;;;1.50;0.70;;;12.70;99.90;;;;;;5031229;28;20820;-73
2021/12/30 01:58:36;;;;;;;1.30;0.50;;;12.70;99.90;;;;;;5037740;28;20512;-74
2021/12/30 02:01:04;;;;;;;1.40;0.50;;;12.70;99.90;;;;;;5051209;28;20437;-73
2021/12/30 02:03:33;;;;;;;1.40;0.50;;;12.70;99.90;;;;;;5044341;28;20434;-74
2021/12/30 02:06:00;;;;;;;1.40;0.63;;;12.70;99.90;;;;;;5030994;28;20450;-73
2021/12/30 02:08:29;;;;;;;1.50;0.70;;;12.70;99.90;;;;;;5036178;28;20442;-74
2021/12/30 02:10:57;;;;;;;1.50;0.60;;;12.80;99.90;;;;;;5050771;28;20450;-73
2021/12/30 02:13:24;;;;;;;1.63;0.70;;;12.80;99.90;;;;;;5041858;28;20442;-73
2021/12/30 02:15:52;;;;;;;1.40;0.70;;;12.80;99.90;;;;;;5031837;28;20440;-73
2021/12/30 02:18:19;;;;;;;1.50;0.70;;;12.80;99.90;;;;;;5030772;28;20442;-72
2021/12/30 02:20:52;;;;;;;1.40;0.50;;;12.80;99.90;;;;;;5043035;28;20447;-73
2021/12/30 02:23:21;;;;;;;1.43;0.57;;;12.80;99.90;;;;;;5050018;28;20531;-73
2021/12/30 02:25:49;;;;;;;1.80;0.60;;;12.80;99.90;;;;;;5038669;28;20438;-74
2021/12/30 02:28:19;;;;;;;1.50;0.60;;;12.80;99.90;;;;;;5031468;28;20979;-73
2021/12/30 02:30:47;;;;;;;1.60;0.83;;;12.80;99.90;;;;;;5042091;28;20975;-74
2021/12/30 02:33:14;;;;;;;1.33;0.50;;;12.80;99.90;;;;;;5051414;28;20444;-73
2021/12/30 02:35:42;;;;;;;1.37;0.50;;;12.80;99.90;;;;;;5040808;28;21060;-72
2021/12/30 02:38:11;;;;;;;1.40;0.60;;;12.80;99.90;;;;;;5031711;28;20446;-73
2021/12/30 02:40:40;;;;;;;1.30;0.50;;;12.80;99.90;;;;;;5048723;28;20449;-73
2021/12/30 02:43:15;;;;;;;1.40;0.53;;;12.80;99.90;;;;;;5051967;28;20434;-73
2021/12/30 02:45:42;;;;;;;1.40;0.50;;;12.80;99.90;;;;;;5033986;28;20503;-73
2021/12/30 02:48:13;;;;;;;1.40;0.50;;;12.70;99.90;;;;;;5031903;28;20473;-73
2021/12/30 02:50:41;;;;;;;1.50;0.57;;;12.70;99.90;;;;;;5048070;28;20429;-73
2021/12/30 02:53:10;;;;;;;1.67;0.70;;;12.70;99.90;;;;;;5052516;28;20460;-73
2021/12/30 02:55:37;;;;;;;1.30;0.50;;;12.70;99.90;;;;;;5039377;28;20480;-72
2021/12/30 02:58:04;;;;;;;1.37;0.50;;;12.80;99.90;;;;;;5038887;28;20495;-73
2021/12/30 03:00:32;;;;;;;1.30;0.50;;;12.80;99.90;;;;;;5055339;28;20562;-73
2021/12/30 03:03:05;;;;;;;1.40;0.60;;;12.80;99.90;;;;;;5052182;28;20503;-73
2021/12/30 03:05:33;;;;;;;1.30;0.50;;;12.80;99.90;;;;;;5035218;28;20438;-73
2021/12/30 03:08:01;;;;;;;1.97;0.60;;;12.80;99.90;;;;;;5045999;28;20448;-73
2021/12/30 03:10:29;;;;;;;4.17;0.60;;;12.80;99.90;;;;;;5054960;28;20429;-73
2021/12/30 03:13:03;;;;;;;1.30;0.50;;;12.80;99.90;;;;;;5044777;28;20439;-74
2021/12/30 03:15:32;;;;;;;1.60;0.60;;;12.80;99.90;;;;;;5035280;28;20452;-73
2021/12/30 03:18:00;;;;;;;1.30;0.50;;;12.80;99.90;;;;;;5044467;28;20469;-73
2021/12/30 03:20:32;;;;;;;1.30;0.50;;;12.80;99.90;;;;;;5054767;28;20567;-73
2021/12/30 03:22:59;;;;;;;1.40;0.50;;;12.80;99.90;;;;;;5045021;28;20443;-73
2021/12/30 03:25:27;;;;;;;1.30;0.50;;;12.80;99.90;;;;;;5034786;28;20481;-73
2021/12/30 03:27:55;;;;;;;1.40;0.50;;;12.90;99.90;;;;;;5042610;28;20443;-73
2021/12/30 03:30:23;;;;;;;1.83;0.80;;;12.90;99.90;;;;;;5054769;28;20787;-73
2021/12/30 03:32:50;;;;;;;1.37;0.57;;;12.90;99.90;;;;;;5045908;28;20439;-73
2021/12/30 03:35:19;;;;;;;1.30;0.50;;;13.00;99.90;;;;;;5034721;28;20443;-73
2021/12/30 03:37:46;;;;;;;1.50;0.57;;;12.90;99.90;;;;;;5037489;28;20484;-73
2021/12/30 03:40:19;;;;;;;1.50;0.57;;;12.90;99.90;;;;;;5054633;28;20530;-73
2021/12/30 03:42:47;;;;;;;1.40;0.50;;;12.90;99.90;;;;;;5040437;28;20443;-72
2021/12/30 03:45:16;;;;;;;1.30;0.50;;;12.90;99.90;;;;;;5034759;28;20474;-73
2021/12/30 03:47:46;;;;;;;1.30;0.40;;;12.80;99.90;;;;;;5043546;28;20470;-73
2021/12/30 03:50:20;;;;;;;1.60;0.50;;;12.80;99.90;;;;;;5034464;28;20438;-73
2021/12/30 03:52:48;;;;;;;1.30;0.50;;;12.80;99.90;;;;;;5046660;28;20477;-73
2021/12/30 03:55:16;;;;;;;1.30;0.60;;;12.90;99.90;;;;;;5054301;28;20813;-73
2021/12/30 03:57:43;;;;;;;1.67;0.77;;;12.80;99.90;;;;;;5044216;28;20445;-73
2021/12/30 04:00:14;;;;;;;1.40;0.70;;;12.80;99.80;;;;;;5054100;28;20480;-72
2021/12/30 04:02:43;;;;;;;1.40;0.50;;;12.80;99.70;;;;;;5043249;28;20860;-73
2021/12/30 04:05:11;;;;;;;1.33;0.53;;;12.80;99.50;;;;;;5034502;28;20500;-72
2021/12/30 04:07:39;;;;;;;2.60;0.60;;;12.80;99.50;;;;;;5041685;28;20448;-72
2021/12/30 04:10:09;;;;;;;1.50;0.60;;;12.90;99.40;;;;;;5034335;28;20445;-73
2021/12/30 04:12:37;;;;;;;1.40;0.50;;;12.90;99.30;;;;;;5043276;28;20524;-73
2021/12/30 04:15:05;;;;;;;1.67;0.60;;;12.90;99.10;;;;;;5054222;28;20465;-73
2021/12/30 04:17:32;;;;;;;1.30;0.50;;;13.00;99.10;;;;;;5051792;28;20516;-73
2021/12/30 04:20:01;;;;;;;1.30;0.50;;;13.00;99.00;;;;;;5054048;28;20488;-73
2021/12/30 04:22:28;;;;;;;1.40;0.60;;;12.90;99.00;;;;;;5046623;28;20442;-73
2021/12/30 04:24:59;;;;;;;1.50;0.50;;;13.00;99.00;;;;;;5034064;28;20445;-73
2021/12/30 04:27:26;;;;;;;1.30;0.50;;;13.00;99.10;;;;;;5039869;28;20447;-73
2021/12/30 04:29:53;;;;;;;1.50;0.70;;;13.00;99.00;;;;;;5054054;28;20491;-73
2021/12/30 04:32:20;;;;;;;1.50;0.50;;;12.90;99.10;;;;;;5048448;28;20460;-73
2021/12/30 04:34:48;;;;;;;2.50;0.57;;;12.90;98.90;;;;;;5033954;28;20449;-73
2021/12/30 04:37:16;;;;;;;1.30;0.50;;;13.00;98.90;;;;;;5038180;28;20483;-72
2021/12/30 04:39:44;;;;;;;1.40;0.50;;;13.00;98.70;;;;;;5053710;28;20983;-72
2021/12/30 04:42:11;;;;;;;1.70;0.70;;;13.00;98.60;;;;;;5050134;28;20500;-73
2021/12/30 04:44:39;;;;;;;1.40;0.53;;;12.90;98.60;;;;;;5033774;28;20496;-73
2021/12/30 04:47:06;;;;;;;1.40;0.60;;;12.90;98.30;;;;;;5036054;28;20434;-72
2021/12/30 04:49:34;;;;;;;1.70;0.53;;;12.90;98.30;;;;;;5053736;28;20525;-73
2021/12/30 04:52:03;;;;;;;1.53;0.77;;;12.90;98.30;;;;;;5051164;28;20469;-73
2021/12/30 04:54:32;;;;;;;1.50;0.60;;;12.90;98.30;;;;;;5033627;28;20791;-73
2021/12/30 04:57:01;;;;;;;3.00;0.60;;;12.80;98.30;;;;;;5034818;28;20478;-73
2021/12/30 04:59:29;;;;;;;1.50;0.70;;;12.90;98.30;;;;;;5053359;28;20836;-74
2021/12/30 05:01:58;;;;;;;1.40;0.60;;;12.80;98.60;;;;;;5052160;28;21176;-73
2021/12/30 05:04:25;;;;;;;1.50;0.60;;;12.90;98.20;;;;;;5033518;28;20525;-73
2021/12/30 05:06:56;;;;;;;1.60;0.70;;;12.80;98.10;;;;;;5033789;28;20438;-73
2021/12/30 05:09:24;;;;;;;1.60;0.70;;;12.90;98.20;;;;;;5053317;28;20473;-73
2021/12/30 05:11:53;;;;;;;1.40;0.60;;;12.90;98.10;;;;;;5039523;28;20471;-73
2021/12/30 05:14:21;;;;;;;2.50;0.70;;;12.80;98.00;;;;;;5033142;28;20477;-73
2021/12/30 05:16:48;;;;;;;1.90;0.80;;;12.90;98.00;;;;;;5042645;28;20804;-73
2021/12/30 05:19:15;;;;;;;2.00;0.83;;;12.90;97.90;;;;;;5035627;28;20441;-73
2021/12/30 05:21:47;;;;;;;1.50;0.70;;;12.90;97.80;;;;;;5033088;28;20498;-72
2021/12/30 05:24:15;;;;;;;1.30;0.50;;;12.90;97.80;;;;;;5032895;28;20448;-73
2021/12/30 05:26:42;;;;;;;1.50;0.60;;;12.90;97.90;;;;;;5033572;28;20501;-73
2021/12/30 05:29:11;;;;;;;1.40;0.50;;;12.80;97.80;;;;;;5052940;28;20437;-73
2021/12/30 05:31:39;;;;;;;1.93;0.50;;;12.80;97.80;;;;;;5043795;28;20804;-73
2021/12/30 05:34:08;;;;;;;1.40;0.57;;;12.80;97.90;;;;;;5032973;28;20446;-73
2021/12/30 05:36:35;;;;;;;1.50;0.53;;;12.80;97.90;;;;;;5035859;28;20430;-73
2021/12/30 05:39:02;;;;;;;1.80;0.70;;;12.90;97.90;;;;;;5032830;28;20434;-73
2021/12/30 05:41:30;;;;;;;1.50;0.57;;;12.90;97.80;;;;;;5038583;28;20556;-73
2021/12/30 05:43:58;;;;;;;2.10;0.67;;;12.90;97.90;;;;;;5052694;28;20433;-73
2021/12/30 05:46:28;;;;;;;2.60;0.60;;;12.80;98.00;;;;;;5046960;28;20439;-74
2021/12/30 05:48:55;;;;;;;1.60;0.70;;;12.90;97.90;;;;;;5032548;28;20481;-74
2021/12/30 05:51:23;;;;;;;1.47;0.50;;;12.90;97.90;;;;;;5036348;28;21045;-74
2021/12/30 05:53:50;;;;;;;1.40;0.50;;;12.90;97.90;;;;;;5052701;28;20851;-74
2021/12/30 05:56:17;;;;;;;1.50;0.60;;;12.90;97.90;;;;;;5048164;28;20434;-73
2021/12/30 05:58:45;;;;;;;2.63;0.60;;;12.90;97.90;;;;;;5032512;28;20446;-74
2021/12/30 06:01:12;;;;;;;1.30;0.50;;;12.90;97.80;;;;;;5034687;28;20481;-73
2021/12/30 06:03:41;;;;;;;1.37;0.50;;;13.00;97.70;;;;;;5013080;28;20447;-73
2021/12/30 06:06:08;;;;;;;2.50;0.60;;;13.00;97.70;;;;;;5017284;28;20435;-74
2021/12/30 06:08:37;;;;;;;1.50;0.60;;;13.00;97.70;;;;;;5052583;28;20499;-74
2021/12/30 06:11:05;;;;;;;2.07;0.80;;;13.00;97.60;;;;;;5033881;28;20963;-74
2021/12/30 06:13:32;;;;;;;1.40;0.50;;;13.00;97.60;;;;;;5032636;28;20434;-74
2021/12/30 06:15:59;;;;;;;1.80;0.70;;;13.00;97.60;;;;;;5048073;28;20441;-74
2021/12/30 06:18:32;;;;;;;1.50;0.70;;;13.00;97.60;;;;;;5032607;28;20924;-74
2021/12/30 06:21:01;;;;;;;1.50;0.60;;;13.00;97.50;;;;;;5048555;28;20481;-74
2021/12/30 06:23:28;;;;;;;1.77;0.80;;;13.00;97.40;;;;;;5052340;28;20952;-74
2021/12/30 06:25:55;;;;;;;1.50;0.60;;;13.00;97.40;;;;;;5036348;28;20496;-73
2021/12/30 06:28:22;;;;;;;1.60;0.87;;;13.00;97.50;;;;;;5033994;28;20504;-74
2021/12/30 06:30:50;;;;;;;1.93;0.90;;;13.10;97.40;;;;;;5049944;28;20469;-74
2021/12/30 06:33:19;;;;;;;1.70;1.00;;;13.10;97.40;;;;;;5056246;28;20454;-73
2021/12/30 06:35:46;;;;;;;1.47;0.70;;;13.10;97.40;;;;;;5042490;28;20438;-72
2021/12/30 06:38:15;;;;;;;2.13;0.80;;;13.10;97.50;;;;;;5054345;28;20437;-73
2021/12/30 06:40:42;;;;;;;1.40;0.63;;;13.00;97.50;;;;;;5043451;28;20987;-73
2021/12/30 06:43:09;;;;;;;2.00;0.60;;;13.10;97.70;;;;;;5036198;28;20508;-73
2021/12/30 06:45:37;;;;;;;2.80;0.80;;;13.00;97.80;;;;;;5046148;28;20455;-73
2021/12/30 06:48:05;;;;;;;1.50;0.60;;;13.00;98.00;;;;;;5038703;28;20442;-73
2021/12/30 06:50:33;;;;;;;2.47;0.80;;;13.00;98.30;;;;;;5045176;28;20935;-73
2021/12/30 06:53:01;;;;;;;1.40;0.60;;;13.00;98.40;;;;;;5055490;28;20473;-73
2021/12/30 06:55:30;;;;;;;1.60;0.60;;;13.00;98.60;;;;;;5046786;28;20434;-73
2021/12/30 06:57:57;;;;;;;1.50;0.70;;;13.00;98.80;;;;;;5051276;28;20520;-73
2021/12/30 07:00:25;;;;;;;1.50;0.50;;;13.00;98.90;;;;;;5047715;28;20536;-73
2021/12/30 07:02:52;;;;;;;1.30;0.50;;;13.00;98.90;;;;;;5035751;28;20967;-73
2021/12/30 07:05:19;;;;;;;1.60;0.70;;;13.00;99.10;;;;;;5041466;28;20794;-73
2021/12/30 07:07:47;;;;;;;1.40;0.50;;;13.00;99.30;;;;;;5041034;28;20442;-73
2021/12/30 07:10:14;;;;;;;1.50;0.50;;;13.00;99.90;;;;;;5039873;28;20436;-73
2021/12/30 07:12:43;;;;;;;1.40;0.70;;;13.00;99.60;;;;;;5055412;28;20449;-73
2021/12/30 07:15:10;;;;;;;1.60;0.77;;;13.10;99.60;;;;;;5051259;28;20441;-74
2021/12/30 07:17:38;;;;;;;1.40;0.63;;;13.10;99.60;;;;;;5042496;28;20446;-73
2021/12/30 07:20:06;;;;;;;2.33;1.10;;;13.00;99.70;;;;;;5048430;28;20512;-74
2021/12/30 07:22:34;;;;;;;3.27;1.57;;;13.10;99.90;;;;;;5055244;28;20483;-74
2021/12/30 07:25:01;;;;;;;2.23;1.00;;;13.00;99.90;;;;;;5053272;28;20495;-73
2021/12/30 07:27:34;;;;;;;2.53;1.40;;;13.00;99.90;;;;;;5043518;28;20442;-74
2021/12/30 07:30:05;;;;;;;3.60;2.20;;;13.00;99.90;;;;;;5035952;28;20434;-74
2021/12/30 07:32:32;;;;;;;3.00;1.80;;;13.10;99.90;;;;;;5015575;28;20953;-74
2021/12/30 07:35:00;;;;;;;3.60;1.60;;;13.10;99.90;;;;;;5015989;28;20530;-74
2021/12/30 07:37:27;;;;;;;3.60;1.63;;;13.10;99.90;;;;;;5040830;28;20958;-73
2021/12/30 07:39:54;;;;;;;2.20;0.80;;;13.00;99.90;;;;;;5031752;28;20442;-73
2021/12/30 07:42:22;;;;;;;4.67;2.13;;;13.00;99.90;;;;;;5018057;28;20505;-75
2021/12/30 07:44:49;;;;;;;8.43;4.93;;;13.10;99.90;;;;;;5014489;28;20469;-73
2021/12/30 07:47:18;;;;;;;6.30;3.90;;;13.10;99.90;;;;;;5024755;28;20945;-73
2021/12/30 07:49:46;;;;;;;6.90;4.83;;;13.00;99.90;;;;;;5014460;28;20447;-73
2021/12/30 07:52:14;;;;;;;3.23;2.07;;;13.00;99.90;;;;;;5020752;28;20470;-73
2021/12/30 07:54:43;;;;;;;8.13;4.50;;;12.90;99.90;;;;;;5014476;28;20878;-72
2021/12/30 07:57:11;;;;;;;2.57;1.37;;;12.90;99.90;;;;;;5022201;28;20443;-73
2021/12/30 07:59:38;;;;;;;8.57;4.17;;;12.90;99.90;;;;;;5014235;28;20995;-74
2021/12/30 08:02:05;;;;;;;12.13;7.80;;;13.00;99.90;;;;;;5014813;28;20483;-74
2021/12/30 08:04:34;;;;;;;13.90;7.73;;;13.00;99.90;;;;;;5031561;28;20500;-73
2021/12/30 08:07:02;;;;;;;11.73;7.00;;;13.00;99.90;;;;;;5018739;28;20981;-73
2021/12/30 08:09:29;;;;;;;3.27;2.20;;;13.00;99.90;;;;;;5014141;28;20453;-74
2021/12/30 08:11:56;;;;;;;3.57;3.07;;;12.90;99.90;;;;;;5022198;28;20497;-73
2021/12/30 08:14:23;;;;;;;5.10;4.13;;;13.00;99.90;;;;;;5030815;28;20442;-72
2021/12/30 08:16:51;;;;;;;4.67;3.47;;;13.00;99.90;;;;;;5031587;28;20471;-73
2021/12/30 08:19:20;;;;;;;4.70;3.80;;;12.90;99.90;;;;;;5031091;28;20465;-73
2021/12/30 08:21:49;;;;;;;10.40;6.87;;;12.90;99.90;;;;;;5013862;28;20537;-74
2021/12/30 08:24:16;;;;;;;6.10;3.90;;;12.90;99.90;;;;;;5027539;28;20847;-73
2021/12/30 08:26:44;;;;;;;7.47;5.77;;;12.90;99.90;;;;;;5031628;28;20500;-73
2021/12/30 08:29:11;;;;;;;3.23;2.13;;;12.80;99.90;;;;;;5022093;28;20435;-73
2021/12/30 08:31:38;;;;;;;8.40;4.70;;;12.90;99.90;;;;;;5013734;28;20510;-73
2021/12/30 08:34:06;;;;;;;7.83;4.87;;;12.90;99.90;;;;;;5023173;28;20444;-73
2021/12/30 08:36:34;;;;;;;4.80;3.30;;;12.80;99.90;;;;;;5013709;28;20439;-73
2021/12/30 08:39:03;;;;;;;8.77;4.57;;;12.90;99.90;;;;;;5021857;28;20435;-73
2021/12/30 08:41:30;;;;;;;5.43;2.70;;;12.90;99.90;;;;;;5013819;28;20523;-73
2021/12/30 08:43:57;;;;;;;7.80;4.27;;;12.80;99.90;;;;;;5019867;28;20505;-74
2021/12/30 08:46:24;;;;;;;3.70;2.40;;;12.90;99.90;;;;;;5015134;28;20471;-74
2021/12/30 08:48:52;;;;;;;10.83;7.10;;;12.90;99.90;;;;;;5013985;28;21007;-73
2021/12/30 08:51:19;;;;;;;7.13;5.30;;;12.90;99.90;;;;;;5012650;28;20478;-73
2021/12/30 08:53:46;;;;;;;5.33;4.57;;;13.00;99.90;;;;;;5021473;28;20439;-74
2021/12/30 08:56:17;;;;;;;4.20;2.73;;;13.10;99.90;;;;;;5019632;28;21033;-74
2021/12/30 08:58:44;;;;;;;7.17;4.93;;;13.20;99.90;;;;;;5030871;28;20438;-73
2021/12/30 09:01:13;;;;;;;4.13;2.37;;;13.20;99.90;;;;;;5020256;28;20533;-73
2021/12/30 09:03:41;;;;;;;4.90;2.87;;;13.20;99.90;;;;;;5020654;28;20848;-73
2021/12/30 09:06:08;;;;;;;8.50;4.20;;;13.20;99.90;;;;;;5013386;28;20443;-73
2021/12/30 09:08:35;;;;;;;11.53;6.47;;;13.20;99.90;;;;;;5013076;28;20524;-72
2021/12/30 09:11:04;;;;;;;4.30;2.93;;;13.20;99.90;;;;;;5021778;28;20524;-74
2021/12/30 09:13:32;;;;;;;5.93;3.83;;;13.20;99.90;;;;;;5031255;28;20485;-74
2021/12/30 09:16:00;;;;;;;6.20;4.70;;;13.20;99.90;;;;;;5030781;28;20476;-73
2021/12/30 09:18:28;;;;;;;4.27;3.40;;;13.30;99.90;;;;;;5018258;28;21003;-74
2021/12/30 09:20:56;;;;;;;10.37;5.20;;;13.30;99.90;;;;;;5028609;28;20556;-74
2021/12/30 09:23:25;;;;;;;33.77;22.00;;;13.40;99.90;;;;;;5021299;28;20467;-73
2021/12/30 09:25:56;;;;;;;12.73;10.67;;;13.40;99.90;;;;;;5029243;28;20466;-73
2021/12/30 09:28:24;;;;;;;2.27;1.23;;;13.50;99.90;;;;;;5016564;28;20444;-73
2021/12/30 09:30:54;;;;;;;3.10;1.17;;;13.50;99.90;;;;;;5028853;28;20937;-74
2021/12/30 09:33:23;;;;;;;3.40;2.00;;;13.50;99.90;;;;;;5018485;28;20467;-73
2021/12/30 09:35:50;;;;;;;3.33;2.07;;;13.50;99.80;;;;;;5013101;28;20801;-74
2021/12/30 09:38:23;;;;;;;2.50;1.23;;;13.60;99.80;;;;;;5026991;28;20945;-74
2021/12/30 09:40:50;;;;;;;1.80;1.10;;;13.70;99.80;;;;;;5029568;28;20587;-73
2021/12/30 09:43:17;;;;;;;3.33;1.63;;;13.70;99.90;;;;;;5023730;28;20530;-73
2021/12/30 09:45:45;;;;;;;3.10;1.83;;;13.80;99.30;;;;;;5024299;28;21101;-74
2021/12/30 09:48:15;;;;;;;1.87;0.97;;;13.80;99.30;;;;;;5026395;28;20956;-73
2021/12/30 09:50:44;;;;;;;1.60;0.70;;;13.90;99.10;;;;;;5021755;28;20530;-74
2021/12/30 09:53:12;;;;;;;1.30;0.50;;;13.90;99.10;;;;;;5027093;28;20590;-74
2021/12/30 09:55:39;;;;;;;1.30;0.50;;;14.00;98.90;;;;;;5030097;28;20452;-73
2021/12/30 09:58:07;;;;;;;1.40;0.50;;;14.00;98.70;;;;;;5021099;28;20533;-73
2021/12/30 10:00:35;;;;;;;1.80;0.70;;;14.10;98.60;;;;;;5018894;28;20530;-74
2021/12/30 10:03:02;;;;;;;1.77;0.60;;;14.10;98.40;;;;;;5020231;28;20545;-74
2021/12/30 10:05:34;;;;;;;2.90;1.40;;;14.20;98.50;;;;;;5021817;28;21005;-74
2021/12/30 10:08:26;;;;;;;2.13;1.00;;;14.20;98.30;;;;;;5025795;28;20565;-74
2021/12/30 10:10:55;;;;;;;4.97;1.30;;;14.30;98.10;;;;;;5010502;28;20482;-74
2021/12/30 10:13:26;;;;;;;1.80;1.20;;;14.50;98.00;;;;;;5033050;28;20441;-74
2021/12/30 10:15:55;;;;;;;2.10;1.70;;;14.50;97.30;;;;;;5036956;28;20434;-74
2021/12/30 10:18:24;;;;;;;2.00;1.27;;;14.60;97.10;;;;;;5031635;28;20866;-74
2021/12/30 10:20:54;;;;;;;1.87;1.00;;;14.70;96.60;;;;;;5018843;28;20488;-74
2021/12/30 10:23:23;;;;;;;1.70;0.90;;;14.70;96.60;;;;;;5018798;28;20471;-73
2021/12/30 10:25:56;;;;;;;1.70;0.93;;;14.70;96.70;;;;;;5022654;28;20454;-73
2021/12/30 10:28:32;;;;;;;1.50;0.60;;;14.70;96.40;;;;;;5022404;28;20834;-74
2021/12/30 10:31:01;;;;;;;1.50;0.60;;;14.70;96.40;;;;;;5030762;28;20789;-74
2021/12/30 10:33:30;;;;;;;1.43;0.50;;;14.70;96.40;;;;;;5018652;28;20466;-73
2021/12/30 10:35:59;;;;;;;1.80;0.70;;;14.60;96.40;;;;;;5026576;28;20518;-73
2021/12/30 10:38:30;;;;;;;1.50;0.60;;;14.60;96.50;;;;;;5018802;28;20526;-73
2021/12/30 10:41:03;;;;;;;1.50;0.70;;;14.70;96.40;;;;;;5018644;28;20489;-74
2021/12/30 10:43:37;;;;;;;1.30;0.50;;;14.70;96.20;;;;;;5024702;28;20874;-74
2021/12/30 10:46:14;;;;;;;2.30;0.50;;;14.80;96.20;;;;;;5028317;28;20453;-74
2021/12/30 10:49:00;;;;;;;1.40;0.50;;;14.80;95.80;;;;;;5031316;28;20516;-73
2021/12/30 10:51:35;;;;;;;2.03;0.77;;;14.90;95.80;;;;;;5029788;28;20833;-74
2021/12/30 10:54:13;;;;;;;2.30;1.10;;;15.00;95.70;;;;;;5030972;28;20536;-73
2021/12/30 10:56:42;;;;;;;3.07;0.90;;;15.20;95.30;;;;;;5028707;28;20513;-73
2021/12/30 10:59:16;;;;;;;3.30;1.07;;;15.30;94.90;;;;;;5033928;28;20937;-73
2021/12/30 11:01:51;;;;;;;1.63;0.80;;;15.50;94.90;;;;;;5035077;28;20477;-74
2021/12/30 11:04:19;;;;;;;1.30;0.50;;;15.70;94.60;;;;;;5030662;28;20445;-73
2021/12/30 11:06:48;;;;;;;1.47;0.60;;;15.90;93.70;;;;;;5032424;28;20442;-74
2021/12/30 11:09:18;;;;;;;1.33;0.60;;;16.10;93.80;;;;;;5030233;28;20481;-73
2021/12/30 11:11:52;;;;;;;1.40;0.50;;;16.20;92.50;;;;;;5031300;28;20492;-73
2021/12/30 11:18:14;;;;;;;1.40;0.50;;;16.20;92.70;;;;;;5000492;22;1355964;-74
2021/12/30 11:20:43;;;;;;;2.07;0.57;;;16.30;92.10;;;;;;5034098;28;20202;-73
2021/12/30 11:23:11;;;;;;;2.43;0.50;;;16.30;92.30;;;;;;5035136;28;20812;-74
2021/12/30 11:25:38;;;;;;;1.33;0.50;;;16.30;92.20;;;;;;5036557;28;20453;-74
2021/12/30 11:28:12;;;;;;;1.30;0.40;;;16.30;92.00;;;;;;5041128;28;20500;-74
2021/12/30 11:30:48;;;;;;;1.40;0.50;;;16.30;92.00;;;;;;5033665;28;20434;-73
2021/12/30 11:33:22;;;;;;;1.87;0.90;;;16.40;92.10;;;;;;5033198;28;20486;-74
2021/12/30 11:35:50;;;;;;;2.03;0.80;;;16.40;91.80;;;;;;5039001;28;20449;-74
2021/12/30 11:38:24;;;;;;;1.70;0.60;;;16.40;91.70;;;;;;5039838;28;20435;-73
2021/12/30 11:40:54;;;;;;;1.30;0.50;;;16.60;91.90;;;;;;5037062;28;20463;-73
2021/12/30 11:43:22;;;;;;;2.50;0.60;;;17.00;91.60;;;;;;5029385;28;20528;-74
2021/12/30 11:45:53;;;;;;;1.43;0.50;;;17.90;91.20;;;;;;5037851;28;20876;-74
2021/12/30 11:48:38;;;;;;;1.40;0.60;;;19.00;89.30;;;;;;5037205;28;20520;-73
2021/12/30 11:51:12;;;;;;;1.50;0.50;;;19.90;83.40;;;;;;5029843;28;20525;-74
2021/12/30 11:53:40;;;;;;;1.40;0.50;;;20.20;77.00;;;;;;5038669;28;20485;-75
2021/12/30 11:56:19;;;;;;;1.40;0.50;;;20.10;76.90;;;;;;5032933;28;20845;-74
2021/12/30 11:58:52;;;;;;;1.30;0.50;;;19.90;76.70;;;;;;5034224;28;20476;-74
2021/12/30 12:01:37;;;;;;;1.47;0.50;;;19.70;76.30;;;;;;5029885;28;20902;-74
2021/12/30 12:04:10;;;;;;;1.40;0.50;;;19.60;77.50;;;;;;5034571;28;20816;-73
2021/12/30 12:06:42;;;;;;;1.37;0.50;;;19.50;76.70;;;;;;5029630;28;20474;-74
2021/12/30 12:09:13;;;;;;;1.40;0.50;;;19.40;77.00;;;;;;5030536;28;20815;-74
2021/12/30 12:11:49;;;;;;;1.40;0.50;;;19.30;75.80;;;;;;5030292;28;20794;-74
2021/12/30 12:14:19;;;;;;;2.33;0.83;;;19.20;76.00;;;;;;5029181;28;20490;-74
2021/12/30 12:16:53;;;;;;;1.63;0.60;;;19.00;76.00;;;;;;5034357;28;20583;-74
2021/12/30 12:19:33;;;;;;;1.67;0.60;;;19.00;76.40;;;;;;5038967;28;20509;-74
2021/12/30 12:22:01;;;;;;;2.20;1.10;;;18.90;75.40;;;;;;5027983;28;21012;-72
2021/12/30 12:24:33;;;;;;;1.87;0.60;;;19.00;76.30;;;;;;5030615;28;20443;-74
2021/12/30 12:27:04;;;;;;;2.00;0.90;;;19.00;76.00;;;;;;5015070;28;20442;-73
2021/12/30 12:29:34;;;;;;;1.40;0.60;;;19.00;76.00;;;;;;5015222;28;20450;-73
2021/12/30 12:32:11;;;;;;;1.57;0.63;;;18.90;75.80;;;;;;5025290;28;20438;-73
2021/12/30 12:34:43;;;;;;;1.70;0.70;;;18.60;75.80;;;;;;5016577;28;21167;-72
2021/12/30 12:37:49;;;;;;;1.80;0.80;;;18.40;76.40;;;;;;5022464;28;20442;-74
2021/12/30 12:40:40;;;;;;;2.17;0.63;;;18.10;77.10;;;;;;5025216;28;20971;-74
2021/12/30 12:43:26;;;;;;;1.50;0.70;;;17.80;77.90;;;;;;5015545;28;20443;-73
2021/12/30 12:46:04;;;;;;;2.57;0.90;;;17.60;79.00;;;;;;5019561;28;20945;-73
2021/12/30 12:48:39;;;;;;;2.00;0.70;;;17.50;80.30;;;;;;5025836;28;20905;-73
2021/12/30 12:51:23;;;;;;;1.47;0.53;;;17.40;80.80;;;;;;5016890;28;20467;-74
2021/12/30 12:53:56;;;;;;;2.03;0.80;;;17.40;81.30;;;;;;5021162;28;20569;-73
2021/12/30 12:56:31;;;;;;;1.70;0.80;;;17.30;81.60;;;;;;5022236;28;20913;-73
2021/12/30 12:59:06;;;;;;;2.33;0.57;;;17.20;82.10;;;;;;5024367;28;21675;-73
2021/12/30 13:01:34;;;;;;;1.50;0.50;;;17.20;82.50;;;;;;5016500;28;20453;-73